createdAt,value
2022-10-02T00:02:24.557Z,11.17
2022-10-02T00:05:14.179Z,8.23
2022-10-02T00:07:49.802Z,7.33
2022-10-02T00:10:22.865Z,8.37
2022-10-02T00:12:54.918Z,10.30
2022-10-02T00:15:27.977Z,9.57
2022-10-02T00:17:58.406Z,9.47
2022-10-02T00:20:33.576Z,7.67
2022-10-02T00:23:26.446Z,10.40
2022-10-02T00:26:12.953Z,12.20
2022-10-02T00:28:53.222Z,8.23
2022-10-02T00:31:33.920Z,12.47
2022-10-02T00:34:12.985Z,10.20
2022-10-02T00:37:10.955Z,11.67
2022-10-02T00:40:03.433Z,8.27
2022-10-02T00:42:57.707Z,10.67
2022-10-02T00:45:42.376Z,8.80
2022-10-02T00:48:34.779Z,10.30
2022-10-02T00:51:26.042Z,8.60
2022-10-02T00:54:23.328Z,7.83
2022-10-02T00:57:10.008Z,11.77
2022-10-02T00:59:58.201Z,7.83
2022-10-02T01:02:30.678Z,7.00
2022-10-02T01:05:11.138Z,9.00
2022-10-02T01:07:42.090Z,10.37
2022-10-02T01:10:11.360Z,9.93
2022-10-02T01:12:38.495Z,13.80
2022-10-02T01:15:16.635Z,9.30
2022-10-02T01:17:43.147Z,12.00
2022-10-02T01:20:28.872Z,7.90
2022-10-02T01:23:05.310Z,11.33
2022-10-02T01:25:32.256Z,12.23
2022-10-02T01:27:58.766Z,9.90
2022-10-02T01:30:25.451Z,9.57
2022-10-02T01:33:03.892Z,7.93
2022-10-02T01:35:33.570Z,11.50
2022-10-02T01:38:04.556Z,7.60
2022-10-02T01:40:33.687Z,5.57
2022-10-02T01:43:07.505Z,10.00
2022-10-02T01:45:58.322Z,8.13
2022-10-02T01:48:37.046Z,8.57
2022-10-02T01:51:42.304Z,9.23
2022-10-02T01:54:22.269Z,10.53
2022-10-02T01:56:58.356Z,7.97
2022-10-02T01:59:24.695Z,14.63
2022-10-02T02:02:11.201Z,10.83
2022-10-02T02:04:49.726Z,7.77
2022-10-02T02:07:37.967Z,10.80
2022-10-02T02:10:13.956Z,8.30
2022-10-02T02:12:49.446Z,10.63
2022-10-02T02:15:25.240Z,8.50
2022-10-02T02:18:00.679Z,9.00
2022-10-02T02:20:36.316Z,6.93
2022-10-02T02:23:11.292Z,10.33
2022-10-02T02:25:40.848Z,8.57
2022-10-02T02:28:12.433Z,10.07
2022-10-02T02:30:41.672Z,10.37
2022-10-02T02:33:14.451Z,10.63
2022-10-02T02:35:47.821Z,14.27
2022-10-02T02:38:24.955Z,9.63
2022-10-02T02:40:52.033Z,12.23
2022-10-02T02:43:24.739Z,16.40
2022-10-02T02:46:03.470Z,10.60
2022-10-02T02:48:36.799Z,10.67
2022-10-02T02:51:32.312Z,13.60
2022-10-02T02:54:21.538Z,10.07
2022-10-02T02:56:49.942Z,12.70
2022-10-02T02:59:19.061Z,10.93
2022-10-02T03:01:45.608Z,14.17
2022-10-02T03:04:13.875Z,13.23
2022-10-02T03:06:47.137Z,10.60
2022-10-02T03:09:19.263Z,16.17
2022-10-02T03:12:04.613Z,16.70
2022-10-02T03:14:59.895Z,12.53
2022-10-02T03:17:44.195Z,16.37
2022-10-02T03:20:41.644Z,10.63
2022-10-02T03:23:29.772Z,12.30
2022-10-02T03:26:24.587Z,15.20
2022-10-02T03:28:57.469Z,15.93
2022-10-02T03:31:28.496Z,12.47
2022-10-02T03:33:58.935Z,12.57
2022-10-02T03:36:26.009Z,13.37
2022-10-02T03:39:20.252Z,18.70
2022-10-02T03:41:43.304Z,8.57
2022-10-02T03:44:09.855Z,9.27
2022-10-02T03:46:36.490Z,12.57
2022-10-02T03:49:03.103Z,12.63
2022-10-02T03:51:30.640Z,10.67
2022-10-02T03:53:57.041Z,12.93
2022-10-02T03:56:56.804Z,16.60
2022-10-02T03:59:48.190Z,12.23
2022-10-02T04:02:38.216Z,13.90
2022-10-02T04:05:22.755Z,21.13
2022-10-02T04:07:54.620Z,26.23
2022-10-02T04:10:29.841Z,18.93
2022-10-02T04:13:10.737Z,32.57
2022-10-02T04:15:51.461Z,26.53
2022-10-02T04:18:24.259Z,24.90
2022-10-02T04:20:58.142Z,22.53
2022-10-02T04:23:32.071Z,27.60
2022-10-02T04:26:03.196Z,24.13
2022-10-02T04:28:41.255Z,25.47
2022-10-02T04:31:13.064Z,24.33
2022-10-02T04:33:40.563Z,21.00
2022-10-02T04:36:34.592Z,24.50
2022-10-02T04:39:35.032Z,28.67
2022-10-02T04:42:49.365Z,27.17
2022-10-02T04:45:28.492Z,22.57
2022-10-02T04:48:24.232Z,18.50
2022-10-02T04:51:15.105Z,24.03
2022-10-02T04:53:56.505Z,20.13
2022-10-02T04:56:50.179Z,21.93
2022-10-02T04:59:52.936Z,16.57
2022-10-02T05:02:47.406Z,21.03
2022-10-02T05:05:23.431Z,19.13
2022-10-02T05:07:58.755Z,21.43
2022-10-02T05:10:34.123Z,17.20
2022-10-02T05:13:13.762Z,19.87
2022-10-02T05:15:54.907Z,17.60
2022-10-02T05:18:33.517Z,10.87
2022-10-02T05:21:18.769Z,18.17
2022-10-02T05:24:00.295Z,23.13
2022-10-02T05:26:48.578Z,17.63
2022-10-02T05:29:39.613Z,22.77
2022-10-02T05:32:18.069Z,20.47
2022-10-02T05:34:57.763Z,21.67
2022-10-02T05:38:01.284Z,18.77
2022-10-02T05:40:32.240Z,17.00
2022-10-02T05:43:08.317Z,15.13
2022-10-02T05:45:40.886Z,23.33
2022-10-02T05:48:23.387Z,18.50
2022-10-02T05:50:54.148Z,19.13
2022-10-02T05:53:32.730Z,17.63
2022-10-02T05:56:06.744Z,18.97
2022-10-02T05:58:38.071Z,15.83
2022-10-02T06:01:15.157Z,18.83
2022-10-02T06:03:48.979Z,20.53
2022-10-02T06:06:23.830Z,13.77
2022-10-02T06:08:58.784Z,15.83
2022-10-02T06:11:41.016Z,16.20
2022-10-02T06:14:12.736Z,15.83
2022-10-02T06:16:44.301Z,16.67
2022-10-02T06:19:23.447Z,14.07
2022-10-02T06:21:57.248Z,15.43
2022-10-02T06:24:44.896Z,12.77
2022-10-02T06:27:17.932Z,12.67
2022-10-02T06:29:51.748Z,13.03
2022-10-02T06:32:38.035Z,13.10
2022-10-02T06:35:16.198Z,14.47
2022-10-02T06:38:07.150Z,13.67
2022-10-02T06:40:45.709Z,13.87
2022-10-02T06:43:24.663Z,10.83
2022-10-02T06:46:07.109Z,10.23
2022-10-02T06:49:22.231Z,8.57
2022-10-02T06:51:57.680Z,7.43
2022-10-02T06:54:48.713Z,7.33
2022-10-02T06:57:33.148Z,8.90
2022-10-02T07:00:12.547Z,9.97
2022-10-02T07:03:23.643Z,8.50
2022-10-02T07:06:11.881Z,6.73
2022-10-02T07:09:01.075Z,8.10
2022-10-02T07:11:51.746Z,6.67
2022-10-02T07:14:27.857Z,6.77
2022-10-02T07:17:19.252Z,11.37
2022-10-02T07:20:06.194Z,7.23
2022-10-02T07:22:51.411Z,7.33
2022-10-02T07:25:58.791Z,9.27
2022-10-02T07:28:52.803Z,6.10
2022-10-02T07:31:49.772Z,7.40
2022-10-02T07:34:25.308Z,6.00
2022-10-02T07:37:29.340Z,7.00
2022-10-02T07:40:29.077Z,5.57
2022-10-02T07:43:49.179Z,6.73
2022-10-02T07:46:18.634Z,5.57
2022-10-02T07:49:13.954Z,5.80
2022-10-02T07:51:53.567Z,7.00
2022-10-02T07:54:41.145Z,8.63
2022-10-02T07:57:13.442Z,5.17
2022-10-02T07:59:43.599Z,5.93
2022-10-02T08:02:24.940Z,5.80
2022-10-02T08:04:58.827Z,8.67
2022-10-02T08:07:26.906Z,5.80
2022-10-02T08:09:55.011Z,6.23
2022-10-02T08:12:32.124Z,4.17
2022-10-02T08:14:59.894Z,3.93
2022-10-02T08:17:32.438Z,5.73
2022-10-02T08:20:04.882Z,4.30
2022-10-02T08:22:39.212Z,4.90
2022-10-02T08:25:13.223Z,3.90
2022-10-02T08:27:50.155Z,6.23
2022-10-02T08:30:16.798Z,5.23
2022-10-02T08:32:43.869Z,3.60
2022-10-02T08:35:19.549Z,5.87
2022-10-02T08:38:30.823Z,4.93
2022-10-02T08:41:18.842Z,5.27
2022-10-02T08:44:10.179Z,4.17
2022-10-02T08:47:02.466Z,4.60
2022-10-02T08:49:54.887Z,5.70
2022-10-02T08:53:08.867Z,4.90
2022-10-02T08:55:53.001Z,5.97
2022-10-02T08:58:44.031Z,8.83
2022-10-02T09:01:32.695Z,7.03
2022-10-02T09:04:17.910Z,6.50
2022-10-02T09:07:24.787Z,10.23
2022-10-02T09:10:29.581Z,5.60
2022-10-02T09:13:19.350Z,4.83
2022-10-02T09:16:00.873Z,5.73
2022-10-02T09:18:55.542Z,8.23
2022-10-02T09:21:56.173Z,5.60
2022-10-02T09:24:56.152Z,6.90
2022-10-02T09:27:57.773Z,4.90
2022-10-02T09:30:42.928Z,7.90
2022-10-02T09:33:31.071Z,5.37
2022-10-02T09:36:30.818Z,6.33
2022-10-02T09:39:18.304Z,7.70
2022-10-02T09:42:09.868Z,5.60
2022-10-02T09:45:11.403Z,5.70
2022-10-02T09:47:53.232Z,7.40
2022-10-02T09:50:38.028Z,6.27
2022-10-02T09:53:44.463Z,6.83
2022-10-02T09:56:34.849Z,7.30
2022-10-02T09:59:20.270Z,10.57
2022-10-02T10:02:25.466Z,10.43
2022-10-02T10:05:19.839Z,8.30
2022-10-02T10:08:06.235Z,3.93
2022-10-02T10:10:41.723Z,5.87
2022-10-02T10:13:08.023Z,7.63
2022-10-02T10:16:19.042Z,18.87
2022-10-02T10:19:09.898Z,7.33
2022-10-02T10:22:02.192Z,5.40
2022-10-02T10:25:03.214Z,6.50
2022-10-02T10:27:45.000Z,6.40
2022-10-02T10:30:48.874Z,7.90
2022-10-02T10:33:18.122Z,6.20
2022-10-02T10:36:45.894Z,7.03
2022-10-02T10:39:47.783Z,8.40
2022-10-02T10:42:24.254Z,5.73
2022-10-02T10:45:18.262Z,8.20
2022-10-02T10:48:19.034Z,8.43
2022-10-02T10:50:52.568Z,4.63
2022-10-02T10:53:51.861Z,8.03
2022-10-02T10:56:46.205Z,6.63
2022-10-02T10:59:43.252Z,4.93
2022-10-02T11:02:22.995Z,7.57
2022-10-02T11:05:29.053Z,2.80
2022-10-02T11:08:06.424Z,5.03
2022-10-02T11:10:56.237Z,5.77
2022-10-02T11:13:44.790Z,8.23
2022-10-02T11:16:33.798Z,7.33
2022-10-02T11:19:22.119Z,6.13
2022-10-02T11:22:00.454Z,8.90
2022-10-02T11:25:13.150Z,6.57
2022-10-02T11:27:51.526Z,6.20
2022-10-02T11:30:41.890Z,8.43
2022-10-02T11:33:33.160Z,7.07
2022-10-02T11:36:05.322Z,6.13
2022-10-02T11:38:59.659Z,7.37
2022-10-02T11:42:05.523Z,9.03
2022-10-02T11:44:47.121Z,7.73
2022-10-02T11:47:46.844Z,5.00
2022-10-02T11:50:25.413Z,5.40
2022-10-02T11:53:04.157Z,9.83
2022-10-02T11:56:08.006Z,10.23
2022-10-02T11:59:18.348Z,7.30
2022-10-02T12:01:47.430Z,5.97
2022-10-02T12:04:57.152Z,7.97
2022-10-02T12:07:38.657Z,5.10
2022-10-02T12:10:28.334Z,5.47
2022-10-02T12:13:16.010Z,13.30
2022-10-02T12:16:19.832Z,6.80
2022-10-02T12:19:03.207Z,7.23
2022-10-02T12:21:51.255Z,7.83
2022-10-02T12:25:04.221Z,8.20
2022-10-02T12:28:11.665Z,6.53
2022-10-02T12:31:00.316Z,5.47
2022-10-02T12:33:44.699Z,6.53
2022-10-02T12:36:34.912Z,7.50
2022-10-02T12:39:30.540Z,8.40
2022-10-02T12:42:06.426Z,5.57
2022-10-02T12:44:35.388Z,7.83
2022-10-02T12:47:55.710Z,9.03
2022-10-02T12:50:23.280Z,9.47
2022-10-02T12:53:29.010Z,5.43
2022-10-02T12:56:07.215Z,8.90
2022-10-02T12:58:56.619Z,7.87
2022-10-02T13:01:49.223Z,8.90
2022-10-02T13:04:53.052Z,6.73
2022-10-02T13:07:52.040Z,6.97
2022-10-02T13:10:47.055Z,9.63
2022-10-02T13:13:31.638Z,7.27
2022-10-02T13:16:21.859Z,12.03
2022-10-02T13:18:57.671Z,8.47
2022-10-02T13:21:24.092Z,8.90
2022-10-02T13:24:08.314Z,8.80
2022-10-02T13:26:34.739Z,9.30
2022-10-02T13:29:16.318Z,9.53
2022-10-02T13:32:11.661Z,7.40
2022-10-02T13:35:01.370Z,6.67
2022-10-02T13:38:08.266Z,8.77
2022-10-02T13:41:08.951Z,9.23
2022-10-02T13:44:01.645Z,6.50
2022-10-02T13:46:46.399Z,6.30
2022-10-02T13:49:31.626Z,7.20
2022-10-02T13:52:35.225Z,6.17
2022-10-02T13:55:18.826Z,7.50
2022-10-02T13:58:10.186Z,7.30
2022-10-02T14:00:58.419Z,7.20
2022-10-02T14:03:43.347Z,7.63
2022-10-02T14:06:22.061Z,7.83
2022-10-02T14:09:11.639Z,6.23
2022-10-02T14:11:38.251Z,6.13
2022-10-02T14:14:20.931Z,12.47
2022-10-02T14:17:13.049Z,9.83
2022-10-02T14:19:52.813Z,8.37
2022-10-02T14:22:46.782Z,7.97
2022-10-02T14:25:33.382Z,8.93
2022-10-02T14:28:22.357Z,8.73
2022-10-02T14:31:07.420Z,6.77
2022-10-02T14:34:11.622Z,8.00
2022-10-02T14:37:06.235Z,9.93
2022-10-02T14:39:39.094Z,7.07
2022-10-02T14:42:28.535Z,8.93
2022-10-02T14:45:04.079Z,8.90
2022-10-02T14:47:42.319Z,6.47
2022-10-02T14:50:41.436Z,4.97
2022-10-02T14:53:28.668Z,9.03
2022-10-02T14:56:18.085Z,6.40
2022-10-02T14:59:12.194Z,7.57
2022-10-02T15:02:10.160Z,9.17
2022-10-02T15:04:50.935Z,6.40
2022-10-02T15:07:23.015Z,9.60
2022-10-02T15:10:01.386Z,6.83
2022-10-02T15:12:43.755Z,7.57
2022-10-02T15:15:33.475Z,5.97
2022-10-02T15:18:03.344Z,5.80
2022-10-02T15:20:38.614Z,10.47
2022-10-02T15:23:10.479Z,9.00
2022-10-02T15:25:58.405Z,8.57
2022-10-02T15:29:06.651Z,9.17
2022-10-02T15:31:59.362Z,12.00
2022-10-02T15:35:03.539Z,7.67
2022-10-02T15:37:46.081Z,6.90
2022-10-02T15:40:12.571Z,7.00
2022-10-02T15:42:52.390Z,7.97
2022-10-02T15:45:55.578Z,8.50
2022-10-02T15:48:36.902Z,6.17
2022-10-02T15:51:28.257Z,11.57
2022-10-02T15:54:07.702Z,6.83
2022-10-02T15:56:59.387Z,7.63
2022-10-02T15:59:39.980Z,8.93
2022-10-02T16:02:06.537Z,10.33
2022-10-02T16:04:50.262Z,13.97
2022-10-02T16:07:51.008Z,9.10
2022-10-02T16:10:28.207Z,10.90
2022-10-02T16:13:12.762Z,9.97
2022-10-02T16:16:04.309Z,9.33
2022-10-02T16:18:36.499Z,6.67
2022-10-02T16:21:26.421Z,10.13
2022-10-02T16:24:20.239Z,7.20
2022-10-02T16:27:28.597Z,9.60
2022-10-02T16:30:17.259Z,10.83
2022-10-02T16:33:06.461Z,8.60
2022-10-02T16:35:50.755Z,5.07
2022-10-02T16:38:22.515Z,8.20
2022-10-02T16:41:03.379Z,6.70
2022-10-02T16:43:48.574Z,8.00
2022-10-02T16:46:45.936Z,9.70
2022-10-02T16:49:44.222Z,9.50
2022-10-02T16:52:31.310Z,7.73
2022-10-02T16:55:15.589Z,8.07
2022-10-02T16:57:41.955Z,10.77
2022-10-02T17:00:36.208Z,8.47
2022-10-02T17:03:20.473Z,10.03
2022-10-02T17:05:53.126Z,12.27
2022-10-02T17:08:39.150Z,6.90
2022-10-02T17:11:18.635Z,6.03
2022-10-02T17:13:58.519Z,8.83
2022-10-02T17:16:36.809Z,7.83
2022-10-02T17:19:19.765Z,9.80
2022-10-02T17:21:53.836Z,9.47
2022-10-02T17:24:31.592Z,9.83
2022-10-02T17:27:16.069Z,10.53
2022-10-02T17:30:03.879Z,8.77
2022-10-02T17:32:51.278Z,12.00
2022-10-02T17:35:33.956Z,9.73
2022-10-02T17:38:27.682Z,7.00
2022-10-02T17:41:12.683Z,10.27
2022-10-02T17:43:50.240Z,14.67
2022-10-02T17:46:35.726Z,10.97
2022-10-02T17:49:24.699Z,14.17
2022-10-02T17:52:37.625Z,11.87
2022-10-02T17:55:32.514Z,8.47
2022-10-02T17:58:23.247Z,9.97
2022-10-02T18:01:07.652Z,17.07
2022-10-02T18:04:17.418Z,9.23
2022-10-02T18:06:49.540Z,8.90
2022-10-02T18:09:27.952Z,18.83
2022-10-02T18:12:20.954Z,10.20
2022-10-02T18:15:12.097Z,13.03
2022-10-02T18:18:09.835Z,11.93
2022-10-02T18:20:57.300Z,14.00
2022-10-02T18:23:59.662Z,12.30
2022-10-02T18:26:28.886Z,12.20
2022-10-02T18:29:11.119Z,13.27
2022-10-02T18:31:55.902Z,9.33
2022-10-02T18:34:44.321Z,8.80
2022-10-02T18:37:11.342Z,13.07
2022-10-02T18:39:42.120Z,13.23
2022-10-02T18:42:50.187Z,8.93
2022-10-02T18:45:44.464Z,11.13
2022-10-02T18:48:19.686Z,12.23
2022-10-02T18:51:15.173Z,12.37
2022-10-02T18:54:19.467Z,13.63
2022-10-02T18:57:07.459Z,12.50
2022-10-02T18:59:53.187Z,15.77
2022-10-02T19:02:32.031Z,12.40
2022-10-02T19:05:22.979Z,13.53
2022-10-02T19:07:49.377Z,8.23
2022-10-02T19:10:21.198Z,10.83
2022-10-02T19:12:54.072Z,10.40
2022-10-02T19:15:27.835Z,9.87
2022-10-02T19:18:04.460Z,12.93
2022-10-02T19:20:48.107Z,12.20
2022-10-02T19:23:32.083Z,10.00
2022-10-02T19:26:04.684Z,14.83
2022-10-02T19:28:33.324Z,13.27
2022-10-02T19:31:04.836Z,14.57
2022-10-02T19:33:52.698Z,11.10
2022-10-02T19:36:24.203Z,9.90
2022-10-02T19:39:02.323Z,14.70
2022-10-02T19:41:36.498Z,12.80
2022-10-02T19:44:08.121Z,12.23
2022-10-02T19:46:43.538Z,7.27
2022-10-02T19:49:22.382Z,10.90
2022-10-02T19:51:49.030Z,12.57
2022-10-02T19:54:23.126Z,10.80
2022-10-02T19:56:59.250Z,10.57
2022-10-02T19:59:33.807Z,12.93
2022-10-02T20:02:12.423Z,13.43
2022-10-02T20:04:39.159Z,12.83
2022-10-02T20:07:06.134Z,11.43
2022-10-02T20:09:45.348Z,11.67
2022-10-02T20:12:21.635Z,12.03
2022-10-02T20:14:55.062Z,14.77
2022-10-02T20:17:22.015Z,16.53
2022-10-02T20:19:54.180Z,15.20
2022-10-02T20:22:46.538Z,12.07
2022-10-02T20:25:28.769Z,14.57
2022-10-02T20:28:21.950Z,15.50
2022-10-02T20:30:56.720Z,13.43
2022-10-02T20:33:54.543Z,19.30
2022-10-02T20:36:43.340Z,28.20
2022-10-02T20:39:18.566Z,43.70
2022-10-02T20:41:58.977Z,48.13
2022-10-02T20:44:29.279Z,60.77
2022-10-02T20:47:27.766Z,64.97
2022-10-02T20:50:12.038Z,36.80
2022-10-02T20:53:07.047Z,25.13
2022-10-02T20:55:42.594Z,18.87
2022-10-02T20:58:23.906Z,19.20
2022-10-02T21:01:05.624Z,23.97
2022-10-02T21:03:50.975Z,17.27
2022-10-02T21:06:42.483Z,18.23
2022-10-02T21:09:31.925Z,18.73
2022-10-02T21:12:14.843Z,11.20
2022-10-02T21:15:05.831Z,9.27
2022-10-02T21:17:46.869Z,9.13
2022-10-02T21:20:50.955Z,12.50
2022-10-02T21:23:39.500Z,16.60
2022-10-02T21:26:40.526Z,12.20
2022-10-02T21:29:41.207Z,14.13
2022-10-02T21:32:33.602Z,12.33
2022-10-02T21:35:24.709Z,11.20
2022-10-02T21:38:16.092Z,14.87
2022-10-02T21:41:27.850Z,10.23
2022-10-02T21:44:16.271Z,10.37
2022-10-02T21:47:13.753Z,11.27
2022-10-02T21:50:21.025Z,8.60
2022-10-02T21:53:13.225Z,15.10
2022-10-02T21:55:39.520Z,12.73
2022-10-02T21:58:28.003Z,12.33
2022-10-02T22:00:58.435Z,9.87
2022-10-02T22:03:54.386Z,11.77
2022-10-02T22:06:54.662Z,7.93
2022-10-02T22:09:27.597Z,7.97
2022-10-02T22:12:19.560Z,6.90
2022-10-02T22:14:53.716Z,11.57
2022-10-02T22:17:40.964Z,11.90
2022-10-02T22:20:40.167Z,12.90
2022-10-02T22:23:12.584Z,9.67
2022-10-02T22:26:12.478Z,11.37
2022-10-02T22:28:54.297Z,13.27
2022-10-02T22:31:37.967Z,10.70
2022-10-02T22:34:25.230Z,10.13
2022-10-02T22:37:03.442Z,6.83
2022-10-02T22:39:46.103Z,6.73
2022-10-02T22:42:20.472Z,6.63
2022-10-02T22:45:14.313Z,7.90
2022-10-02T22:47:51.763Z,9.20
2022-10-02T22:50:24.628Z,8.93
2022-10-02T22:53:05.915Z,9.57
2022-10-02T22:55:37.252Z,8.67
2022-10-02T22:58:15.869Z,10.10
2022-10-02T23:01:08.308Z,13.80
2022-10-02T23:03:53.687Z,8.23
2022-10-02T23:06:44.147Z,5.77
2022-10-02T23:09:22.389Z,15.60
2022-10-02T23:12:25.430Z,7.87
2022-10-02T23:15:12.543Z,6.33
2022-10-02T23:17:45.437Z,7.97
2022-10-02T23:20:15.628Z,10.03
2022-10-02T23:22:52.419Z,7.70
2022-10-02T23:25:33.923Z,5.37
2022-10-02T23:28:13.980Z,8.33
2022-10-02T23:30:49.402Z,5.90
2022-10-02T23:33:24.847Z,11.27
2022-10-02T23:36:35.079Z,6.23
2022-10-02T23:39:11.489Z,7.17
2022-10-02T23:41:49.193Z,8.17
2022-10-02T23:44:24.594Z,9.70
2022-10-02T23:46:50.987Z,4.93
2022-10-02T23:49:19.519Z,6.90
2022-10-02T23:51:57.928Z,9.33
2022-10-02T23:54:33.986Z,9.30
2022-10-02T23:57:12.721Z,10.60
2022-10-02T23:59:51.835Z,12.93
